Etusivu
METAR-TAF:

METAR-TAF

Lentoasemat :

Tromssa, Norja

Tromssan lentoasema

Leveyspiiri: 69-41N, Pituuspiiri: 018-55E, korkeus merenpinnasta: 1 m

Tämänhetkinen sää

Tämä raportti tehtiin 36 minuuttia sitten, kello 04.20 UTC
Tuuli 15 kn etelästä
Lämpötila 6°C
Kosteus 61%
Ilmanpaine 1028 hPa
Näkyvyys 10 km tai enemmän
ei pilviä alle 1500 m:ssä eikä cumulonimbus-pilviä

METAR: ENTC 210420Z 19015KT CAVOK 06/M01 Q1028 RMK WIND 2600FT 18027G38KT

Aika: 06:56 (04:56 UTC)

Sääennuste

Ennuste voimassa 21. päivästä klo 00 UTC - 21. päivään klo 24 UTC
Tuuli 15 kn etelästä
Näkyvyys 10 km tai enemmän
ei pilviä alle 1500 m:ssä eikä cumulonimbus-pilviä

TAF: ENTC 2100/2124 19015KT CAVOK

Säähavainnot ja -ennusteet yli 4000 lentoasemalta (METAR- ja TAF-raportit).

Käytössä olevat sääasemat on merkitty karttaan keltaisilla ja punaisilla pisteillä.

Aseta hiiri pisteen päälle nähdäksesi sääaseman nimen.

Klikkaa sitten nähdäksesi säähavainnot ja -ennusteet.

Kartan vaihtaminen: klikkaa mustalla rastilla varustettuja vihreitä pisteitä, niin voit zoomata sisään; viivalla varustettua vihreää pistettä, niin voit zoomata ulos tai vihreitä nuolia, niin pääset viereisille kartoille.


METAR-TAF: